createdAt,value
2023-01-26T00:02:03.938Z,11.55
2023-01-26T00:04:30.701Z,11.40
2023-01-26T00:06:57.434Z,10.93
2023-01-26T00:09:26.407Z,11.80
2023-01-26T00:11:53.162Z,11.93
2023-01-26T00:14:19.956Z,12.88
2023-01-26T00:16:46.733Z,12.55
2023-01-26T00:19:13.482Z,11.30
2023-01-26T00:21:40.230Z,11.85
2023-01-26T00:24:07.375Z,11.85
2023-01-26T00:26:34.243Z,11.65
2023-01-26T00:29:04.481Z,13.68
2023-01-26T00:31:31.279Z,11.27
2023-01-26T00:34:00.698Z,13.13
2023-01-26T00:36:28.455Z,12.02
2023-01-26T00:38:55.244Z,11.23
2023-01-26T00:41:40.419Z,12.57
2023-01-26T00:44:07.269Z,11.52
2023-01-26T00:46:34.162Z,11.40
2023-01-26T00:49:02.696Z,12.10
2023-01-26T00:51:29.384Z,12.07
2023-01-26T00:53:56.207Z,12.73
2023-01-26T00:56:28.822Z,10.98
2023-01-26T00:58:55.554Z,11.70
2023-01-26T01:01:25.024Z,10.57
2023-01-26T01:03:52.263Z,11.48
2023-01-26T01:06:18.993Z,9.93
2023-01-26T01:08:45.835Z,11.77
2023-01-26T01:11:12.843Z,11.68
2023-01-26T01:13:39.658Z,11.15
2023-01-26T01:16:11.825Z,10.82
2023-01-26T01:18:39.444Z,12.07
2023-01-26T01:21:07.803Z,12.32
2023-01-26T01:23:34.640Z,11.95
2023-01-26T01:26:02.315Z,10.10
2023-01-26T01:28:29.247Z,9.25
2023-01-26T01:31:01.202Z,9.40
2023-01-26T01:33:27.984Z,9.52
2023-01-26T01:35:59.337Z,10.38
2023-01-26T01:38:26.841Z,9.70
2023-01-26T01:40:57.014Z,8.82
2023-01-26T01:43:25.089Z,8.43
2023-01-26T01:45:55.198Z,9.05
2023-01-26T01:48:25.238Z,9.10
2023-01-26T01:50:58.770Z,10.25
2023-01-26T01:53:30.771Z,9.60
2023-01-26T01:56:02.355Z,9.95
2023-01-26T01:58:38.494Z,8.88
2023-01-26T02:01:05.548Z,11.55
2023-01-26T02:03:34.179Z,9.30
2023-01-26T02:06:16.774Z,9.10
2023-01-26T02:08:47.668Z,9.38
2023-01-26T02:11:18.427Z,8.50
2023-01-26T02:13:50.951Z,9.70
2023-01-26T02:16:19.109Z,9.23
2023-01-26T02:18:46.538Z,10.40
2023-01-26T02:21:17.399Z,9.50
2023-01-26T02:23:59.109Z,8.75
2023-01-26T02:26:34.904Z,9.02
2023-01-26T02:29:04.550Z,10.13
2023-01-26T02:31:34.287Z,9.52
2023-01-26T02:34:03.827Z,8.98
2023-01-26T02:36:34.821Z,9.25
2023-01-26T02:39:32.894Z,9.05
2023-01-26T02:42:18.297Z,9.45
2023-01-26T02:44:45.157Z,9.63
2023-01-26T02:47:14.240Z,8.80
2023-01-26T02:49:47.214Z,9.45
2023-01-26T02:52:15.269Z,9.80
2023-01-26T02:55:00.546Z,10.23
2023-01-26T02:57:29.783Z,10.40
2023-01-26T02:59:56.551Z,10.45
2023-01-26T03:02:26.259Z,8.10
2023-01-26T03:04:53.242Z,9.07
2023-01-26T03:07:20.076Z,10.07
2023-01-26T03:09:46.789Z,10.52
2023-01-26T03:12:13.516Z,9.07
2023-01-26T03:14:40.276Z,9.75
2023-01-26T03:17:07.076Z,9.05
2023-01-26T03:19:52.458Z,10.13
2023-01-26T03:25:05.820Z,9.25
2023-01-26T03:27:50.254Z,10.38
2023-01-26T03:30:19.578Z,8.40
2023-01-26T03:32:48.553Z,8.70
2023-01-26T03:35:16.056Z,9.93
2023-01-26T03:37:44.598Z,8.43
2023-01-26T03:40:31.620Z,9.07
2023-01-26T03:43:17.061Z,10.48
2023-01-26T03:46:02.373Z,10.38
2023-01-26T03:48:47.925Z,9.65
2023-01-26T03:51:33.134Z,9.90
2023-01-26T03:54:18.434Z,9.43
2023-01-26T03:56:45.140Z,9.95
2023-01-26T03:59:15.312Z,10.18
2023-01-26T04:02:03.700Z,10.57
2023-01-26T04:04:49.571Z,9.25
2023-01-26T04:07:34.977Z,10.82
2023-01-26T04:10:01.748Z,9.60
2023-01-26T04:12:28.491Z,8.65
2023-01-26T04:15:13.872Z,10.18
2023-01-26T04:17:59.404Z,9.48
2023-01-26T04:20:44.725Z,9.93
2023-01-26T04:23:18.620Z,9.88
2023-01-26T04:25:45.408Z,9.38
2023-01-26T04:28:12.151Z,11.27
2023-01-26T04:30:39.412Z,9.57
2023-01-26T04:33:06.160Z,10.85
2023-01-26T04:35:33.818Z,9.70
2023-01-26T04:38:00.538Z,10.68
2023-01-26T04:40:27.292Z,9.35
2023-01-26T04:42:54.031Z,9.35
2023-01-26T04:45:20.779Z,9.23
2023-01-26T04:47:47.570Z,9.80
2023-01-26T04:50:14.652Z,10.63
2023-01-26T04:52:41.397Z,10.27
2023-01-26T04:55:08.537Z,9.30
2023-01-26T04:57:35.256Z,9.85
2023-01-26T05:00:02.104Z,9.25
2023-01-26T05:02:28.915Z,9.18
2023-01-26T05:04:55.648Z,6.97
2023-01-26T05:07:22.348Z,8.68
2023-01-26T05:09:49.109Z,10.68
2023-01-26T05:12:33.776Z,9.80
2023-01-26T05:15:00.516Z,9.63
2023-01-26T05:17:27.270Z,8.15
2023-01-26T05:19:54.117Z,8.88
2023-01-26T05:22:20.900Z,10.20
2023-01-26T05:24:47.651Z,9.18
2023-01-26T05:27:23.209Z,8.55
2023-01-26T05:29:50.870Z,8.90
2023-01-26T05:32:18.142Z,9.73
2023-01-26T05:34:45.176Z,8.20
2023-01-26T05:37:14.539Z,9.00
2023-01-26T05:39:41.788Z,9.48
2023-01-26T05:42:08.564Z,8.50
2023-01-26T05:44:35.334Z,9.82
2023-01-26T05:47:02.042Z,8.80
2023-01-26T05:49:28.903Z,8.82
2023-01-26T05:51:55.734Z,7.95
2023-01-26T05:54:22.505Z,9.30
2023-01-26T05:56:49.344Z,8.15
2023-01-26T05:59:16.272Z,8.52
2023-01-26T06:01:43.006Z,9.35
2023-01-26T06:04:09.842Z,9.50
2023-01-26T06:06:38.893Z,8.70
2023-01-26T06:09:05.672Z,8.73
2023-01-26T06:11:33.243Z,7.22
2023-01-26T06:14:00.008Z,7.93
2023-01-26T06:16:26.796Z,8.15
2023-01-26T06:18:53.562Z,9.07
2023-01-26T06:21:20.256Z,9.20
2023-01-26T06:23:47.152Z,9.43
2023-01-26T06:26:15.288Z,8.48
2023-01-26T06:28:42.002Z,7.72
2023-01-26T06:31:08.950Z,8.48
2023-01-26T06:33:37.440Z,7.57
2023-01-26T06:36:06.073Z,8.68
2023-01-26T06:38:33.129Z,8.55
2023-01-26T06:41:03.226Z,7.20
2023-01-26T06:43:31.180Z,8.20
2023-01-26T06:45:58.582Z,7.85
2023-01-26T06:48:29.744Z,8.60
2023-01-26T06:51:25.478Z,6.88
2023-01-26T06:53:57.255Z,7.65
2023-01-26T06:56:24.809Z,8.10
2023-01-26T06:58:51.613Z,7.47
2023-01-26T07:01:21.671Z,8.65
2023-01-26T07:03:49.871Z,7.25
2023-01-26T07:06:16.704Z,8.30
2023-01-26T07:08:43.841Z,9.20
2023-01-26T07:11:12.530Z,7.95
2023-01-26T07:13:39.927Z,7.35
2023-01-26T07:16:12.700Z,8.52
2023-01-26T07:18:39.546Z,11.60
2023-01-26T07:21:11.575Z,14.80
2023-01-26T07:23:38.629Z,13.90
2023-01-26T07:26:06.911Z,13.20
2023-01-26T07:28:38.659Z,16.10
2023-01-26T07:31:08.770Z,10.23
2023-01-26T07:33:35.944Z,12.57
2023-01-26T07:36:04.155Z,10.13
2023-01-26T07:38:30.971Z,9.32
2023-01-26T07:40:57.969Z,9.27
2023-01-26T07:43:24.846Z,9.82
2023-01-26T07:45:53.991Z,8.07
2023-01-26T07:48:23.219Z,9.55
2023-01-26T07:50:50.859Z,9.80
2023-01-26T07:53:23.021Z,9.65
2023-01-26T07:55:50.035Z,9.68
2023-01-26T07:58:18.639Z,8.52
2023-01-26T08:00:47.256Z,8.00
2023-01-26T08:03:14.372Z,9.05
2023-01-26T08:05:43.233Z,9.00
2023-01-26T08:08:10.249Z,8.40
2023-01-26T08:10:37.049Z,8.20
2023-01-26T08:13:03.881Z,8.00
2023-01-26T08:15:30.969Z,9.63
2023-01-26T08:17:57.788Z,9.07
2023-01-26T08:20:24.542Z,7.55
2023-01-26T08:22:51.329Z,8.93
2023-01-26T08:25:18.132Z,8.45
2023-01-26T08:27:44.854Z,8.20
2023-01-26T08:30:12.746Z,8.77
2023-01-26T08:32:39.736Z,9.60
2023-01-26T08:35:07.039Z,9.20
2023-01-26T08:37:33.903Z,7.93
2023-01-26T08:40:00.716Z,7.60
2023-01-26T08:42:27.467Z,8.05
2023-01-26T08:44:54.217Z,8.13
2023-01-26T08:47:21.000Z,8.77
2023-01-26T08:49:47.815Z,7.43
2023-01-26T08:52:14.731Z,8.05
2023-01-26T08:54:41.524Z,8.30
2023-01-26T08:57:08.283Z,8.32
2023-01-26T08:59:35.085Z,7.22
2023-01-26T09:02:01.931Z,8.55
2023-01-26T09:04:29.026Z,9.35
2023-01-26T09:06:56.183Z,9.65
2023-01-26T09:09:23.094Z,7.78
2023-01-26T09:11:49.907Z,9.48
2023-01-26T09:14:16.699Z,9.18
2023-01-26T09:16:43.485Z,9.65
2023-01-26T09:19:10.428Z,8.60
2023-01-26T09:21:37.205Z,7.53
2023-01-26T09:26:38.432Z,9.25
2023-01-26T09:29:05.183Z,8.25
2023-01-26T09:31:32.022Z,11.27
2023-01-26T09:33:58.887Z,13.63
2023-01-26T09:36:25.718Z,11.88
2023-01-26T09:38:54.125Z,9.32
2023-01-26T09:41:37.765Z,8.77
2023-01-26T09:44:11.245Z,8.93
2023-01-26T09:47:05.899Z,8.73
2023-01-26T09:49:55.633Z,8.43
2023-01-26T09:52:33.610Z,8.15
2023-01-26T09:58:56.415Z,7.88
2023-01-26T10:01:40.816Z,8.38
2023-01-26T10:04:30.044Z,8.70
2023-01-26T10:06:58.479Z,8.15
2023-01-26T10:09:32.786Z,9.05
2023-01-26T10:12:33.931Z,8.00
2023-01-26T10:15:13.396Z,9.65
2023-01-26T10:17:42.891Z,11.18
2023-01-26T10:20:15.737Z,10.00
2023-01-26T10:22:46.632Z,9.60
2023-01-26T10:25:20.443Z,10.48
2023-01-26T10:27:47.286Z,9.27
2023-01-26T10:30:18.844Z,9.82
2023-01-26T10:32:48.158Z,8.80
2023-01-26T10:35:25.438Z,10.52
2023-01-26T10:37:53.177Z,8.55
2023-01-26T10:40:22.727Z,10.43
2023-01-26T10:43:00.225Z,8.98
2023-01-26T10:45:33.881Z,8.82
2023-01-26T10:48:26.718Z,9.95
2023-01-26T10:50:54.923Z,10.32
2023-01-26T10:53:29.995Z,10.23
2023-01-26T10:56:26.396Z,10.23
2023-01-26T10:58:55.994Z,9.80
2023-01-26T11:01:27.715Z,8.55
2023-01-26T11:04:12.227Z,8.88
2023-01-26T11:06:39.284Z,8.60
2023-01-26T11:09:24.685Z,8.27
2023-01-26T11:11:59.157Z,9.13
2023-01-26T11:14:26.069Z,8.57
2023-01-26T11:17:28.133Z,9.10
2023-01-26T11:20:17.135Z,8.88
2023-01-26T11:22:48.305Z,8.50
2023-01-26T11:25:32.352Z,8.00
2023-01-26T11:28:08.157Z,8.88
2023-01-26T11:31:20.230Z,8.60
2023-01-26T11:34:17.596Z,8.43
2023-01-26T11:38:18.589Z,8.95
2023-01-26T11:41:30.589Z,8.02
2023-01-26T11:47:45.855Z,8.40
2023-01-26T11:50:45.901Z,9.70
2023-01-26T11:53:19.584Z,9.48
2023-01-26T11:56:18.534Z,9.48
2023-01-26T11:58:49.826Z,7.93
2023-01-26T12:01:28.999Z,8.50
2023-01-26T12:03:57.625Z,8.80
2023-01-26T12:06:27.564Z,8.88
2023-01-26T12:09:21.469Z,9.68
2023-01-26T12:12:23.661Z,8.85
2023-01-26T12:15:00.134Z,10.52
2023-01-26T12:26:04.716Z,9.45
2023-01-26T12:28:42.387Z,9.07
2023-01-26T12:37:53.950Z,8.43
2023-01-26T12:50:03.136Z,8.77
2023-01-26T12:52:52.858Z,11.38
2023-01-26T12:55:35.026Z,14.23
2023-01-26T12:58:05.110Z,8.40
2023-01-26T13:00:35.619Z,9.52
2023-01-26T13:03:16.053Z,8.10
2023-01-26T13:06:08.969Z,9.13
2023-01-26T13:08:35.988Z,8.55
2023-01-26T13:11:07.521Z,9.68
2023-01-26T13:13:55.845Z,11.27
2023-01-26T13:16:25.789Z,12.20
2023-01-26T13:18:53.811Z,15.80
2023-01-26T13:21:43.672Z,10.15
2023-01-26T13:24:16.428Z,9.30
2023-01-26T13:26:50.086Z,9.85
2023-01-26T13:29:27.274Z,9.25
2023-01-26T13:31:57.865Z,10.52
2023-01-26T13:34:34.150Z,8.85
2023-01-26T13:37:09.337Z,9.32
2023-01-26T13:39:39.400Z,8.45
2023-01-26T13:43:14.580Z,8.98
2023-01-26T13:45:58.940Z,8.65
2023-01-26T13:48:41.804Z,8.70
2023-01-26T13:51:13.175Z,8.68
2023-01-26T13:54:01.485Z,7.32
2023-01-26T13:56:32.964Z,7.60
2023-01-26T13:59:13.585Z,6.97
2023-01-26T14:01:52.481Z,8.00
2023-01-26T14:04:27.604Z,7.35
2023-01-26T14:07:19.058Z,7.10
2023-01-26T14:09:49.738Z,7.07
2023-01-26T14:12:26.653Z,7.38
2023-01-26T14:15:03.198Z,5.38
2023-01-26T14:17:31.373Z,6.22
2023-01-26T14:20:03.743Z,6.88
2023-01-26T14:22:30.591Z,6.30
2023-01-26T14:24:57.358Z,7.50
2023-01-26T14:27:33.366Z,8.48
2023-01-26T14:30:02.084Z,8.20
2023-01-26T14:32:29.914Z,9.93
2023-01-26T14:34:59.246Z,8.88
2023-01-26T14:37:27.957Z,7.45
2023-01-26T14:40:24.308Z,6.78
2023-01-26T14:42:53.589Z,6.75
2023-01-26T14:45:29.525Z,8.18
2023-01-26T14:48:01.393Z,6.47
2023-01-26T14:50:32.417Z,8.77
2023-01-26T14:53:01.066Z,7.88
2023-01-26T14:55:30.459Z,6.10
2023-01-26T14:57:58.566Z,8.02
2023-01-26T15:00:32.672Z,5.32
2023-01-26T15:03:04.471Z,6.10
2023-01-26T15:05:37.585Z,4.70
2023-01-26T15:08:05.835Z,5.72
2023-01-26T15:10:37.096Z,6.35
2023-01-26T15:13:11.392Z,7.13
2023-01-26T15:15:43.363Z,7.93
2023-01-26T15:18:13.078Z,9.63
2023-01-26T15:21:00.289Z,7.55
2023-01-26T15:23:28.934Z,6.15
2023-01-26T15:26:03.219Z,7.22
2023-01-26T15:28:30.137Z,5.97
2023-01-26T15:30:57.395Z,6.85
2023-01-26T15:33:40.401Z,6.55
2023-01-26T15:36:22.309Z,6.65
2023-01-26T15:38:49.074Z,5.75
2023-01-26T15:41:16.209Z,5.55
2023-01-26T15:43:42.944Z,5.50
2023-01-26T15:46:10.651Z,6.20
2023-01-26T15:48:37.713Z,6.32
2023-01-26T15:51:10.652Z,5.95
2023-01-26T15:53:37.385Z,5.40
2023-01-26T15:56:04.248Z,6.07
2023-01-26T15:58:34.750Z,6.72
2023-01-26T16:01:01.988Z,7.80
2023-01-26T16:03:28.943Z,8.35
2023-01-26T16:05:55.800Z,8.00
2023-01-26T16:08:22.549Z,6.88
2023-01-26T16:10:49.635Z,7.70
2023-01-26T16:13:18.524Z,7.05
2023-01-26T16:15:53.830Z,6.97
2023-01-26T16:18:20.966Z,5.50
2023-01-26T16:20:49.962Z,5.03
2023-01-26T16:23:28.622Z,6.03
2023-01-26T16:25:55.901Z,6.55
2023-01-26T16:28:22.660Z,7.05
2023-01-26T16:30:50.913Z,6.57
2023-01-26T16:33:24.657Z,5.88
2023-01-26T16:35:51.849Z,6.50
2023-01-26T16:38:18.678Z,6.70
2023-01-26T16:40:49.531Z,5.65
2023-01-26T16:43:27.424Z,6.20
2023-01-26T16:45:54.772Z,5.95
2023-01-26T16:48:22.798Z,6.05
2023-01-26T16:50:53.824Z,6.40
2023-01-26T16:53:32.968Z,6.78
2023-01-26T16:55:59.917Z,6.00
2023-01-26T16:58:26.812Z,6.53
2023-01-26T17:00:55.189Z,8.00
2023-01-26T17:03:22.102Z,9.45
2023-01-26T17:05:50.634Z,8.30
2023-01-26T17:08:17.547Z,7.13
2023-01-26T17:11:00.689Z,6.22
2023-01-26T17:13:28.820Z,6.63
2023-01-26T17:15:57.654Z,6.05
2023-01-26T17:18:25.002Z,6.47
2023-01-26T17:20:51.944Z,6.47
2023-01-26T17:23:18.730Z,6.43
2023-01-26T17:25:46.635Z,6.18
2023-01-26T17:28:13.396Z,7.53
2023-01-26T17:30:40.201Z,8.18
2023-01-26T17:33:06.972Z,9.10
2023-01-26T17:35:33.724Z,10.05
2023-01-26T17:38:00.480Z,9.07
2023-01-26T17:40:27.263Z,7.18
2023-01-26T17:42:53.978Z,7.05
2023-01-26T17:45:20.862Z,7.38
2023-01-26T17:47:47.591Z,7.13
2023-01-26T17:50:14.643Z,6.88
2023-01-26T17:52:41.400Z,6.07
2023-01-26T17:55:09.805Z,6.10
2023-01-26T17:57:36.787Z,7.00
2023-01-26T18:00:04.712Z,6.88
2023-01-26T18:02:31.943Z,6.75
2023-01-26T18:04:58.799Z,6.43
2023-01-26T18:07:25.567Z,5.65
2023-01-26T18:09:52.314Z,5.65
2023-01-26T18:12:19.060Z,6.85
2023-01-26T18:14:45.828Z,6.90
2023-01-26T18:17:12.515Z,7.60
2023-01-26T18:19:39.216Z,6.47
2023-01-26T18:22:05.957Z,7.70
2023-01-26T18:24:32.739Z,12.40
2023-01-26T18:26:59.464Z,12.73
2023-01-26T18:29:27.354Z,11.27
2023-01-26T18:31:54.303Z,9.38
2023-01-26T18:34:21.220Z,7.90
2023-01-26T18:36:48.224Z,6.72
2023-01-26T18:39:17.062Z,6.53
2023-01-26T18:41:44.312Z,7.40
2023-01-26T18:44:12.379Z,7.85
2023-01-26T18:46:39.485Z,7.20
2023-01-26T18:49:06.393Z,7.43
2023-01-26T18:51:35.650Z,6.20
2023-01-26T18:54:04.253Z,8.95
2023-01-26T18:56:31.423Z,7.35
2023-01-26T18:58:58.269Z,7.38
2023-01-26T19:01:26.219Z,8.98
2023-01-26T19:03:58.614Z,8.95
2023-01-26T19:09:01.259Z,6.97
2023-01-26T19:11:31.025Z,7.55
2023-01-26T19:13:58.482Z,19.75
2023-01-26T19:16:26.048Z,19.15
2023-01-26T19:18:54.269Z,18.65
2023-01-26T19:21:24.396Z,16.05
2023-01-26T19:23:53.156Z,10.35
2023-01-26T19:26:23.436Z,8.63
2023-01-26T19:28:51.053Z,8.25
2023-01-26T19:31:19.543Z,9.10
2023-01-26T19:33:53.857Z,10.38
2023-01-26T19:36:20.852Z,10.50
2023-01-26T19:38:48.007Z,14.73
2023-01-26T19:41:15.700Z,13.88
2023-01-26T19:43:43.067Z,17.88
2023-01-26T19:46:11.929Z,27.45
2023-01-26T19:48:39.002Z,21.55
2023-01-26T19:51:10.233Z,13.45
2023-01-26T19:53:39.700Z,11.37
2023-01-26T19:56:11.729Z,10.35
2023-01-26T19:58:39.401Z,8.98
2023-01-26T20:01:10.031Z,8.60
2023-01-26T20:03:37.764Z,9.68
2023-01-26T20:06:05.663Z,9.88
2023-01-26T20:08:32.798Z,10.18
2023-01-26T20:11:09.989Z,10.15
2023-01-26T20:13:37.074Z,11.15
2023-01-26T20:16:06.831Z,14.90
2023-01-26T20:18:34.254Z,10.32
2023-01-26T20:21:01.472Z,9.57
2023-01-26T20:23:28.547Z,9.10
2023-01-26T20:26:09.881Z,9.27
2023-01-26T20:28:38.051Z,9.13
2023-01-26T20:31:16.774Z,7.97
2023-01-26T20:33:47.611Z,9.13
2023-01-26T20:36:20.484Z,8.50
2023-01-26T20:38:49.525Z,8.70
2023-01-26T20:41:18.993Z,8.10
2023-01-26T20:43:58.774Z,8.85
2023-01-26T20:46:28.010Z,9.45
2023-01-26T20:48:55.723Z,9.40
2023-01-26T20:51:26.345Z,8.63
2023-01-26T20:53:53.069Z,8.68
2023-01-26T20:56:21.819Z,9.23
2023-01-26T20:58:51.807Z,9.10
2023-01-26T21:01:19.023Z,8.88
2023-01-26T21:03:46.291Z,8.65
2023-01-26T21:06:16.260Z,8.63
2023-01-26T21:08:44.404Z,9.43
2023-01-26T21:11:13.509Z,9.23
2023-01-26T21:13:44.015Z,10.45
2023-01-26T21:16:13.658Z,11.93
2023-01-26T21:18:40.629Z,10.40
2023-01-26T21:21:10.624Z,11.02
2023-01-26T21:26:08.139Z,11.40
2023-01-26T21:28:34.849Z,10.80
2023-01-26T21:31:02.626Z,11.85
2023-01-26T21:33:30.786Z,11.38
2023-01-26T21:35:58.640Z,9.80
2023-01-26T21:38:25.768Z,9.63
2023-01-26T21:41:04.027Z,9.60
2023-01-26T21:43:32.967Z,9.40
2023-01-26T21:46:00.944Z,9.38
2023-01-26T21:48:27.973Z,10.85
2023-01-26T21:51:17.704Z,9.93
2023-01-26T21:53:45.066Z,9.02
2023-01-26T21:56:14.732Z,8.43
2023-01-26T21:58:54.171Z,10.00
2023-01-26T22:01:21.531Z,8.70
2023-01-26T22:03:48.730Z,7.35
2023-01-26T22:06:15.745Z,7.40
2023-01-26T22:08:42.439Z,9.20
2023-01-26T22:11:09.298Z,8.20
2023-01-26T22:13:36.864Z,9.35
2023-01-26T22:16:04.677Z,9.38
2023-01-26T22:18:31.719Z,9.50
2023-01-26T22:20:58.555Z,9.10
2023-01-26T22:23:25.434Z,9.93
2023-01-26T22:25:52.225Z,8.55
2023-01-26T22:28:18.965Z,7.60
2023-01-26T22:30:45.716Z,9.40
2023-01-26T22:33:12.441Z,9.73
2023-01-26T22:35:39.180Z,9.93
2023-01-26T22:38:05.918Z,8.98
2023-01-26T22:40:32.705Z,9.60
2023-01-26T22:42:59.819Z,9.70
2023-01-26T22:45:26.597Z,8.93
2023-01-26T22:47:53.560Z,8.60
2023-01-26T22:50:20.350Z,8.30
2023-01-26T22:52:47.076Z,9.40
2023-01-26T22:55:13.834Z,8.90
2023-01-26T22:57:40.599Z,9.27
2023-01-26T23:00:08.120Z,8.48
2023-01-26T23:02:35.094Z,8.32
2023-01-26T23:05:01.942Z,8.60
2023-01-26T23:07:29.211Z,8.63
2023-01-26T23:09:55.945Z,9.40
2023-01-26T23:12:22.771Z,10.20
2023-01-26T23:14:49.569Z,9.75
2023-01-26T23:17:16.447Z,9.43
2023-01-26T23:19:43.209Z,9.68
2023-01-26T23:22:09.964Z,9.75
2023-01-26T23:24:36.736Z,10.70
2023-01-26T23:27:03.538Z,9.98
2023-01-26T23:29:30.270Z,9.93
2023-01-26T23:31:57.102Z,8.77
2023-01-26T23:34:23.965Z,9.48
2023-01-26T23:36:50.739Z,9.23
2023-01-26T23:39:17.516Z,8.82
2023-01-26T23:41:44.293Z,8.00
2023-01-26T23:44:13.129Z,8.23
2023-01-26T23:46:39.944Z,9.70
2023-01-26T23:49:06.943Z,8.18
2023-01-26T23:51:33.798Z,9.35
2023-01-26T23:54:00.542Z,8.32
2023-01-26T23:56:27.334Z,7.95
2023-01-26T23:58:54.127Z,9.68
